createdAt,value
2023-03-18T00:01:08.517Z,33.33
2023-03-18T00:06:16.997Z,34.88
2023-03-18T00:11:24.208Z,33.30
2023-03-18T00:16:30.267Z,33.75
2023-03-18T00:21:36.936Z,34.13
2023-03-18T00:26:43.437Z,34.08
2023-03-18T00:31:50.010Z,35.15
2023-03-18T00:36:58.789Z,35.22
2023-03-18T00:42:37.782Z,36.92
2023-03-18T00:47:45.302Z,33.10
2023-03-18T00:52:51.775Z,37.65
2023-03-18T00:57:58.970Z,39.58
2023-03-18T01:03:06.340Z,35.40
2023-03-18T01:08:14.205Z,36.50
2023-03-18T01:13:22.371Z,33.63
2023-03-18T01:19:15.836Z,36.85
2023-03-18T01:29:51.429Z,44.13
2023-03-18T01:35:02.953Z,40.10
2023-03-18T01:41:17.240Z,35.58
2023-03-18T01:46:13.978Z,36.88
2023-03-18T02:08:54.793Z,50.13
2023-03-18T02:14:12.475Z,36.70
2023-03-18T02:19:52.141Z,36.75
2023-03-18T02:25:25.856Z,34.60
2023-03-18T02:31:01.701Z,36.15
2023-03-18T02:36:13.985Z,34.03
2023-03-18T02:41:25.168Z,36.38
2023-03-18T02:46:43.774Z,35.83
2023-03-18T02:51:50.567Z,30.98
2023-03-18T02:56:57.219Z,32.88
2023-03-18T03:02:04.286Z,31.60
2023-03-18T03:07:11.831Z,30.65
2023-03-18T03:12:24.884Z,31.85
2023-03-18T03:18:15.825Z,30.83
2023-03-18T03:23:22.812Z,30.20
2023-03-18T03:28:29.685Z,31.08
2023-03-18T03:33:35.841Z,31.75
2023-03-18T03:38:43.469Z,27.83
2023-03-18T03:49:21.742Z,28.90
2023-03-18T03:54:28.605Z,29.17
2023-03-18T03:59:35.182Z,28.00
2023-03-18T04:04:53.288Z,29.33
2023-03-18T04:10:05.134Z,30.27
2023-03-18T04:15:12.549Z,28.95
2023-03-18T04:20:21.011Z,29.95
2023-03-18T04:25:28.002Z,28.63
2023-03-18T04:30:35.542Z,25.88
2023-03-18T04:35:46.899Z,28.60
2023-03-18T04:40:56.178Z,28.92
2023-03-18T04:46:03.298Z,24.25
2023-03-18T04:51:12.176Z,18.65
2023-03-18T04:56:22.542Z,13.75
2023-03-18T05:01:32.602Z,23.80
2023-03-18T05:06:39.830Z,23.98
2023-03-18T05:12:08.695Z,26.38
2023-03-18T05:17:18.253Z,17.50
2023-03-18T05:22:33.103Z,28.30
2023-03-18T05:27:52.085Z,37.67
2023-03-18T05:33:19.081Z,49.45
2023-03-18T05:38:33.392Z,44.78
2023-03-18T05:43:43.918Z,38.50
2023-03-18T05:49:00.528Z,17.83
2023-03-18T05:54:25.278Z,29.48
2023-03-18T05:59:38.432Z,27.90
2023-03-18T06:10:16.452Z,24.05
2023-03-18T06:17:14.585Z,18.40
2023-03-18T06:22:14.005Z,20.60
2023-03-18T06:27:20.734Z,13.10
2023-03-18T06:38:38.020Z,28.90
2023-03-18T06:43:50.972Z,26.42
2023-03-18T06:49:02.650Z,29.08
2023-03-18T06:54:23.904Z,30.35
2023-03-18T06:59:33.373Z,29.42
2023-03-18T07:04:41.257Z,29.50
2023-03-18T07:09:48.359Z,28.00
2023-03-18T07:15:02.184Z,31.58
2023-03-18T07:20:17.435Z,32.47
2023-03-18T07:25:27.890Z,31.13
2023-03-18T07:30:35.442Z,27.08
2023-03-18T07:35:53.446Z,28.10
2023-03-18T07:41:03.455Z,27.50
2023-03-18T07:46:18.113Z,28.05
2023-03-18T07:57:47.685Z,23.25
2023-03-18T08:14:37.120Z,27.77
2023-03-18T08:24:48.964Z,28.65
2023-03-18T08:40:37.620Z,31.27
2023-03-18T08:45:46.908Z,34.15
2023-03-18T08:50:52.862Z,31.75
2023-03-18T08:56:00.358Z,34.42
2023-03-18T09:01:11.760Z,29.10
2023-03-18T09:06:18.410Z,32.28
2023-03-18T09:11:25.878Z,35.70
2023-03-18T09:16:32.068Z,35.47
2023-03-18T09:26:43.541Z,34.20
2023-03-18T09:31:49.869Z,32.20
2023-03-18T09:36:56.364Z,33.22
2023-03-18T09:42:05.247Z,31.38
2023-03-18T09:47:52.621Z,35.45
2023-03-18T09:53:20.017Z,33.65
2023-03-18T09:58:55.990Z,33.42
2023-03-18T10:04:20.362Z,39.53
2023-03-18T10:10:03.486Z,37.70
2023-03-18T10:15:59.756Z,35.88
2023-03-18T10:21:34.634Z,38.15
2023-03-18T10:26:52.035Z,39.80
2023-03-18T10:32:49.050Z,41.60
2023-03-18T10:37:55.742Z,40.20
2023-03-18T10:43:02.308Z,40.97
2023-03-18T10:48:30.356Z,44.40
2023-03-18T10:55:02.278Z,43.22
2023-03-18T11:00:02.060Z,40.33
2023-03-18T11:05:34.359Z,37.00
2023-03-18T11:10:53.268Z,38.08
2023-03-18T11:16:04.571Z,38.30
2023-03-18T11:21:17.496Z,39.50
2023-03-18T11:26:35.338Z,39.97
2023-03-18T11:32:03.394Z,41.50
2023-03-18T11:37:15.561Z,37.90
2023-03-18T11:42:39.787Z,44.03
2023-03-18T11:47:58.458Z,40.75
2023-03-18T11:53:43.816Z,36.50
2023-03-18T12:05:07.821Z,59.13
2023-03-18T12:10:58.269Z,56.88
2023-03-18T12:16:31.432Z,52.45
2023-03-18T12:22:16.415Z,47.17
2023-03-18T12:28:02.180Z,42.03
2023-03-18T12:33:54.546Z,36.90
2023-03-18T12:39:23.027Z,40.65
2023-03-18T12:44:32.110Z,39.42
2023-03-18T12:49:43.739Z,40.65
2023-03-18T12:55:09.192Z,40.50
2023-03-18T13:00:38.598Z,22.73
2023-03-18T13:06:16.142Z,40.75
2023-03-18T13:11:46.338Z,46.50
2023-03-18T13:16:57.889Z,42.05
2023-03-18T13:22:23.261Z,41.10
2023-03-18T13:28:14.664Z,41.40
2023-03-18T13:33:57.494Z,34.38
2023-03-18T13:39:11.846Z,38.17
2023-03-18T13:44:56.173Z,41.78
2023-03-18T13:50:23.817Z,39.38
2023-03-18T13:55:44.091Z,29.48
2023-03-18T14:01:02.772Z,22.35
2023-03-18T14:06:19.553Z,21.40
2023-03-18T14:16:39.743Z,29.02
2023-03-18T14:22:16.983Z,24.60
2023-03-18T14:27:30.081Z,24.98
2023-03-18T14:32:38.309Z,13.05
2023-03-18T14:38:37.058Z,21.02
2023-03-18T14:44:22.613Z,17.27
2023-03-18T14:49:30.581Z,20.98
2023-03-18T14:54:47.743Z,13.65
2023-03-18T14:59:56.352Z,14.57
2023-03-18T15:05:05.050Z,17.05
2023-03-18T15:10:21.404Z,14.70
2023-03-18T15:15:29.685Z,19.48
2023-03-18T15:20:38.737Z,23.30
2023-03-18T15:25:47.360Z,23.20
2023-03-18T15:30:57.087Z,25.08
2023-03-18T15:36:09.764Z,23.95
2023-03-18T15:41:19.767Z,25.10
2023-03-18T15:46:34.892Z,26.75
2023-03-18T15:51:50.932Z,33.63
2023-03-18T15:56:59.529Z,26.60
2023-03-18T16:02:09.382Z,35.92
2023-03-18T16:07:29.644Z,35.30
2023-03-18T16:12:37.315Z,37.42
2023-03-18T16:17:43.797Z,37.30
2023-03-18T16:22:49.895Z,36.80
2023-03-18T16:33:08.112Z,40.47
2023-03-18T16:38:19.377Z,33.20
2023-03-18T16:43:28.619Z,34.90
2023-03-18T16:48:34.904Z,44.75
2023-03-18T16:53:41.309Z,47.78
2023-03-18T17:03:53.413Z,32.38
2023-03-18T17:09:03.785Z,25.50
2023-03-18T17:14:35.133Z,21.58
2023-03-18T17:19:43.867Z,16.33
2023-03-18T17:24:50.312Z,28.15
2023-03-18T17:29:56.930Z,20.35
2023-03-18T17:35:03.768Z,30.52
2023-03-18T17:40:10.867Z,36.85
2023-03-18T17:45:35.372Z,25.75
2023-03-18T17:50:52.944Z,29.70
2023-03-18T17:56:00.189Z,33.10
2023-03-18T18:01:16.942Z,35.38
2023-03-18T18:06:26.676Z,33.65
2023-03-18T18:11:39.170Z,37.10
2023-03-18T18:16:44.892Z,38.63
2023-03-18T18:21:52.357Z,39.75
2023-03-18T18:26:58.475Z,39.85
2023-03-18T18:37:10.736Z,36.15
2023-03-18T18:42:16.618Z,46.50
2023-03-18T18:47:23.545Z,49.25
2023-03-18T18:52:29.710Z,39.03
2023-03-18T19:02:41.759Z,43.47
2023-03-18T19:07:48.663Z,38.35
2023-03-18T19:12:54.804Z,43.42
2023-03-18T19:18:02.494Z,37.55
2023-03-18T19:23:15.522Z,43.08
2023-03-18T19:28:57.150Z,41.83
2023-03-18T19:34:04.335Z,38.95
2023-03-18T19:39:17.291Z,40.42
2023-03-18T19:44:26.640Z,44.55
2023-03-18T19:49:37.800Z,39.63
2023-03-18T19:54:44.436Z,40.42
2023-03-18T20:05:02.929Z,38.47
2023-03-18T20:10:12.447Z,40.20
2023-03-18T20:15:20.318Z,40.78
2023-03-18T20:20:29.334Z,36.63
2023-03-18T20:25:38.997Z,41.45
2023-03-18T20:30:45.515Z,40.00
2023-03-18T20:35:54.232Z,41.50
2023-03-18T20:41:01.095Z,41.28
2023-03-18T20:46:07.579Z,40.60
2023-03-18T20:51:28.175Z,41.83
2023-03-18T20:56:36.325Z,40.20
2023-03-18T21:01:42.736Z,44.90
2023-03-18T21:06:49.924Z,38.28
2023-03-18T21:11:55.812Z,38.15
2023-03-18T21:17:02.078Z,44.47
2023-03-18T21:22:42.405Z,42.92
2023-03-18T21:27:49.290Z,40.22
2023-03-18T21:32:55.478Z,46.65
2023-03-18T21:38:01.231Z,43.03
2023-03-18T21:43:30.005Z,39.53
2023-03-18T21:48:36.209Z,41.15
2023-03-18T21:53:42.536Z,42.83
2023-03-18T21:58:49.322Z,39.38
2023-03-18T22:03:56.016Z,37.90
2023-03-18T22:09:02.236Z,43.78
2023-03-18T22:14:08.464Z,38.92
2023-03-18T22:19:14.427Z,41.83
2023-03-18T22:24:20.712Z,36.38
2023-03-18T22:29:26.829Z,41.05
2023-03-18T22:34:33.637Z,44.33
2023-03-18T22:39:39.592Z,40.70
2023-03-18T22:44:46.396Z,36.13
2023-03-18T22:49:53.207Z,41.20
2023-03-18T22:55:06.270Z,36.60
2023-03-18T23:00:33.143Z,36.65
2023-03-18T23:05:39.269Z,36.88
2023-03-18T23:15:53.027Z,36.17
2023-03-18T23:20:59.531Z,34.17
2023-03-18T23:26:05.828Z,33.40
2023-03-18T23:31:12.565Z,33.50
2023-03-18T23:36:19.062Z,35.90
2023-03-18T23:41:25.084Z,32.40
2023-03-18T23:46:31.118Z,36.88
2023-03-18T23:56:42.832Z,33.22
